createdAt,value
2023-04-26T00:02:47.136Z,99.5
2023-04-26T00:07:47.112Z,100
2023-04-26T00:12:47.191Z,99
2023-04-26T00:17:47.084Z,100
2023-04-26T00:22:47.070Z,99
2023-04-26T00:27:47.085Z,99
2023-04-26T00:32:47.026Z,100
2023-04-26T00:37:47.002Z,100
2023-04-26T00:42:46.986Z,100
2023-04-26T00:47:46.969Z,99.5
2023-04-26T00:52:46.991Z,99.5
2023-04-26T00:57:46.924Z,99.5
2023-04-26T01:02:47.014Z,99.5
2023-04-26T01:07:46.958Z,99.5
2023-04-26T01:12:46.940Z,99.5
2023-04-26T01:17:46.875Z,99
2023-04-26T01:22:46.835Z,99
2023-04-26T01:27:46.811Z,99
2023-04-26T01:32:46.788Z,98.5
2023-04-26T01:37:46.807Z,98.5
2023-04-26T01:42:46.812Z,98.5
2023-04-26T01:47:46.735Z,98.5
2023-04-26T01:52:46.719Z,98.5
2023-04-26T01:57:46.697Z,99
2023-04-26T02:02:46.672Z,99
2023-04-26T02:07:46.654Z,99
2023-04-26T02:12:46.678Z,98.5
2023-04-26T02:17:46.624Z,98.5
2023-04-26T02:22:46.612Z,98.5
2023-04-26T02:27:46.588Z,98
2023-04-26T02:32:46.587Z,98
2023-04-26T02:37:46.562Z,98
2023-04-26T02:42:46.544Z,98
2023-04-26T02:47:46.526Z,98
2023-04-26T02:52:46.605Z,98
2023-04-26T02:57:46.560Z,98
2023-04-26T03:02:46.528Z,98.5
2023-04-26T03:07:46.441Z,98
2023-04-26T03:12:46.412Z,98
2023-04-26T03:17:46.411Z,98
2023-04-26T03:22:46.383Z,98
2023-04-26T03:27:46.363Z,97.5
2023-04-26T03:32:46.344Z,97.5
2023-04-26T03:37:46.328Z,97.5
2023-04-26T03:42:46.332Z,98
2023-04-26T03:47:46.297Z,98.5
2023-04-26T03:52:46.307Z,99
2023-04-26T03:57:46.247Z,99.5
2023-04-26T04:02:46.265Z,99.5
2023-04-26T04:07:46.219Z,99.5
2023-04-26T04:12:46.194Z,100
2023-04-26T04:17:46.173Z,100
2023-04-26T04:22:46.168Z,99.5
2023-04-26T04:27:46.147Z,99.5
2023-04-26T04:32:46.136Z,99.5
2023-04-26T04:37:46.107Z,100
2023-04-26T04:42:46.163Z,99.5
2023-04-26T04:47:46.057Z,99.5
2023-04-26T04:52:46.038Z,99.5
2023-04-26T04:57:46.067Z,100
2023-04-26T05:02:46.001Z,100
2023-04-26T05:07:46.005Z,100
2023-04-26T05:12:45.973Z,100
2023-04-26T05:17:46.029Z,100
2023-04-26T05:22:46.023Z,100
2023-04-26T05:27:45.935Z,100
2023-04-26T05:32:45.923Z,100
2023-04-26T05:37:45.887Z,100
2023-04-26T05:42:45.858Z,100
2023-04-26T05:47:45.956Z,100
2023-04-26T05:52:45.834Z,100
2023-04-26T05:57:45.799Z,100
2023-04-26T06:02:45.805Z,100
2023-04-26T06:07:45.765Z,100
2023-04-26T06:12:45.744Z,100
2023-04-26T06:17:45.754Z,100
2023-04-26T06:22:45.720Z,100
2023-04-26T06:27:45.697Z,100
2023-04-26T06:32:45.663Z,100
2023-04-26T06:37:45.653Z,100
2023-04-26T06:42:45.665Z,100
2023-04-26T06:47:45.622Z,100
2023-04-26T06:52:45.641Z,100
2023-04-26T06:57:45.646Z,100
2023-04-26T07:02:45.681Z,100
2023-04-26T07:07:45.534Z,100
2023-04-26T07:12:45.542Z,100
2023-04-26T07:17:45.519Z,100
2023-04-26T07:22:45.472Z,100
2023-04-26T07:27:45.457Z,100
2023-04-26T07:32:45.595Z,100
2023-04-26T07:37:45.582Z,100
2023-04-26T07:42:45.404Z,100
2023-04-26T07:47:45.392Z,100
2023-04-26T07:52:45.543Z,100
2023-04-26T07:57:45.339Z,100
2023-04-26T08:02:45.434Z,100
2023-04-26T08:07:45.317Z,100
2023-04-26T08:12:45.310Z,100
2023-04-26T08:17:45.264Z,100
2023-04-26T08:22:45.279Z,100
2023-04-26T08:27:45.282Z,100
2023-04-26T08:32:45.219Z,100
2023-04-26T08:37:45.202Z,100
2023-04-26T08:42:45.187Z,100
2023-04-26T08:47:45.251Z,100
2023-04-26T08:52:45.167Z,100
2023-04-26T08:57:45.113Z,100
2023-04-26T09:02:45.130Z,100
2023-04-26T09:07:45.091Z,100
2023-04-26T09:12:45.079Z,100
2023-04-26T09:17:45.106Z,100
2023-04-26T09:22:45.012Z,100
2023-04-26T09:27:44.968Z,100
2023-04-26T09:32:44.963Z,100
2023-04-26T09:37:44.938Z,100
2023-04-26T09:42:44.913Z,100
2023-04-26T09:47:44.929Z,100
2023-04-26T09:52:44.907Z,100
2023-04-26T09:57:44.857Z,100
2023-04-26T10:02:45.063Z,100
2023-04-26T10:07:44.976Z,100
2023-04-26T10:12:44.925Z,100
2023-04-26T10:17:44.867Z,100
2023-04-26T10:22:44.756Z,100
2023-04-26T10:27:44.767Z,100
2023-04-26T10:32:44.790Z,100
2023-04-26T10:37:44.680Z,100
2023-04-26T10:42:44.774Z,100
2023-04-26T10:47:44.815Z,100
2023-04-26T10:52:44.623Z,100
2023-04-26T10:57:44.626Z,100
2023-04-26T11:02:44.639Z,100
2023-04-26T11:07:44.558Z,100
2023-04-26T11:12:44.570Z,100
2023-04-26T11:17:44.523Z,100
2023-04-26T11:22:44.517Z,100
2023-04-26T11:27:44.482Z,100
2023-04-26T11:32:44.465Z,100
2023-04-26T11:37:44.448Z,100
2023-04-26T11:42:44.488Z,100
2023-04-26T11:47:44.578Z,100
2023-04-26T11:52:44.455Z,100
2023-04-26T11:57:44.365Z,100
2023-04-26T12:02:44.395Z,100
2023-04-26T12:07:44.307Z,99
2023-04-26T12:12:44.349Z,96.5
2023-04-26T12:17:44.272Z,97
2023-04-26T12:22:44.253Z,99
2023-04-26T12:27:44.251Z,100
2023-04-26T12:32:44.209Z,88
2023-04-26T12:37:44.219Z,91
2023-04-26T12:42:44.162Z,92
2023-04-26T12:47:44.146Z,84
2023-04-26T12:52:44.130Z,92
2023-04-26T12:57:44.103Z,85.5
2023-04-26T13:02:44.084Z,80
2023-04-26T13:07:44.139Z,85.5
2023-04-26T13:12:44.044Z,85
2023-04-26T13:17:44.019Z,84.5
2023-04-26T13:22:43.993Z,85
2023-04-26T13:27:43.980Z,86
2023-04-26T13:32:43.979Z,80.5
2023-04-26T13:37:43.941Z,75
2023-04-26T13:42:43.918Z,82
2023-04-26T13:47:43.895Z,79
2023-04-26T13:52:43.867Z,77.5
2023-04-26T13:57:43.863Z,81
2023-04-26T14:02:43.830Z,79.5
2023-04-26T14:07:43.806Z,83.5
2023-04-26T14:12:43.778Z,81.5
2023-04-26T14:17:43.800Z,80
2023-04-26T14:22:43.766Z,79.5
2023-04-26T14:27:43.749Z,81
2023-04-26T14:32:43.697Z,78.5
2023-04-26T14:37:43.707Z,85.5
2023-04-26T14:42:43.739Z,79.5
2023-04-26T14:47:43.644Z,83
2023-04-26T14:52:43.624Z,86.5
2023-04-26T14:57:43.602Z,82.5
2023-04-26T15:02:43.579Z,83
2023-04-26T15:07:43.565Z,83.5
2023-04-26T15:12:43.579Z,86
2023-04-26T15:17:43.522Z,85.5
2023-04-26T15:22:43.496Z,86.5
2023-04-26T15:27:43.506Z,89.5
2023-04-26T15:32:43.453Z,88
2023-04-26T15:37:43.457Z,90
2023-04-26T15:42:43.402Z,86.5
2023-04-26T15:47:43.431Z,85
2023-04-26T15:52:43.442Z,85.5
2023-04-26T15:57:43.353Z,86
2023-04-26T16:02:43.325Z,84
2023-04-26T16:07:43.390Z,88
2023-04-26T16:12:43.365Z,87
2023-04-26T16:17:43.307Z,90.5
2023-04-26T16:22:43.260Z,91.5
2023-04-26T16:27:43.231Z,91.5
2023-04-26T16:32:43.294Z,93.5
2023-04-26T16:37:43.267Z,99
2023-04-26T16:42:43.202Z,96.5
2023-04-26T16:47:43.180Z,93.5
2023-04-26T16:52:43.126Z,99.5
2023-04-26T16:57:43.107Z,99.5
2023-04-26T17:02:43.099Z,95
2023-04-26T17:07:43.155Z,95
2023-04-26T17:12:43.046Z,97.5
2023-04-26T17:17:43.032Z,96
2023-04-26T17:22:43.002Z,96.5
2023-04-26T17:27:42.987Z,100
2023-04-26T17:32:42.962Z,95
2023-04-26T17:37:42.961Z,99.5
2023-04-26T17:42:42.952Z,98.5
2023-04-26T17:47:43.007Z,100
2023-04-26T17:52:42.907Z,100
2023-04-26T17:57:42.865Z,100
2023-04-26T18:02:42.852Z,100
2023-04-26T18:07:42.833Z,100
2023-04-26T18:12:42.801Z,100
2023-04-26T18:17:42.778Z,100
2023-04-26T18:22:42.752Z,100
2023-04-26T18:27:42.745Z,100
2023-04-26T18:32:42.808Z,100
2023-04-26T18:37:42.695Z,100
2023-04-26T18:42:42.733Z,100
2023-04-26T18:47:42.649Z,100
2023-04-26T18:52:42.668Z,100
2023-04-26T18:57:42.748Z,100
2023-04-26T19:02:42.596Z,100
2023-04-26T19:07:42.572Z,100
2023-04-26T19:12:42.635Z,100
2023-04-26T19:17:42.575Z,100
2023-04-26T19:22:42.508Z,100
2023-04-26T19:27:42.628Z,100
2023-04-26T19:32:42.476Z,100
2023-04-26T19:37:42.612Z,100
2023-04-26T19:42:42.434Z,100
2023-04-26T19:47:42.408Z,100
2023-04-26T19:52:42.448Z,100
2023-04-26T19:57:42.372Z,100
2023-04-26T20:02:42.453Z,100
2023-04-26T20:07:42.476Z,100
2023-04-26T20:12:42.306Z,100
2023-04-26T20:17:42.478Z,100
2023-04-26T20:22:42.313Z,100
2023-04-26T20:27:42.277Z,100
2023-04-26T20:32:42.379Z,100
2023-04-26T20:37:42.229Z,100
2023-04-26T20:42:42.193Z,100
2023-04-26T20:47:42.199Z,100
2023-04-26T20:52:42.172Z,100
2023-04-26T20:57:42.150Z,100
2023-04-26T21:02:42.219Z,100
2023-04-26T21:07:42.086Z,100
2023-04-26T21:12:42.079Z,100
2023-04-26T21:17:42.076Z,100
2023-04-26T21:22:42.039Z,100
2023-04-26T21:27:42.085Z,100
2023-04-26T21:32:42.003Z,100
2023-04-26T21:37:41.993Z,100
2023-04-26T21:42:41.985Z,100
2023-04-26T21:47:41.941Z,100
2023-04-26T21:52:41.945Z,100
2023-04-26T21:57:41.899Z,100
2023-04-26T22:02:41.883Z,100
2023-04-26T22:07:41.891Z,100
2023-04-26T22:12:41.842Z,100
2023-04-26T22:17:41.824Z,100
2023-04-26T22:22:41.811Z,100
2023-04-26T22:27:41.836Z,100
2023-04-26T22:32:41.770Z,100
2023-04-26T22:37:41.733Z,100
2023-04-26T22:42:41.723Z,100
2023-04-26T22:47:41.718Z,100
2023-04-26T22:52:41.679Z,100
2023-04-26T22:57:41.663Z,100
2023-04-26T23:02:41.678Z,100
2023-04-26T23:07:41.672Z,100
2023-04-26T23:12:41.613Z,100
2023-04-26T23:17:41.588Z,100
2023-04-26T23:22:41.600Z,100
2023-04-26T23:27:41.593Z,100
2023-04-26T23:32:41.532Z,100
2023-04-26T23:37:41.539Z,100
2023-04-26T23:42:41.549Z,100
2023-04-26T23:47:41.490Z,100
2023-04-26T23:52:41.446Z,100
2023-04-26T23:57:41.428Z,100
